sensor_id;sensor_type;location;lat;lon;timestamp;pressure;altitude;pressure_sealevel;temperature;humidity
70229;BME280;57617;51.988;5.854;2023-03-22T00:01:07;100516.97;;;13.09;67.39
70229;BME280;57617;51.988;5.854;2023-03-22T00:03:33;100509.31;;;13.06;67.38
70229;BME280;57617;51.988;5.854;2023-03-22T00:05:58;100512.03;;;13.06;67.16
70229;BME280;57617;51.988;5.854;2023-03-22T00:08:24;100508.22;;;13.07;67.51
70229;BME280;57617;51.988;5.854;2023-03-22T00:10:49;100505.22;;;13.04;67.18
70229;BME280;57617;51.988;5.854;2023-03-22T00:13:15;100508.47;;;13.01;67.67
70229;BME280;57617;51.988;5.854;2023-03-22T00:15:42;100496.75;;;13.00;67.05
70229;BME280;57617;51.988;5.854;2023-03-22T00:18:09;100504.38;;;12.98;67.80
70229;BME280;57617;51.988;5.854;2023-03-22T00:20:36;100501.28;;;12.95;67.31
70229;BME280;57617;51.988;5.854;2023-03-22T00:23:03;100493.94;;;12.95;67.15
70229;BME280;57617;51.988;5.854;2023-03-22T00:25:29;100485.75;;;12.90;67.10
70229;BME280;57617;51.988;5.854;2023-03-22T00:27:55;100490.41;;;12.95;67.38
70229;BME280;57617;51.988;5.854;2023-03-22T00:30:22;100490.16;;;12.96;67.41
70229;BME280;57617;51.988;5.854;2023-03-22T00:32:48;100489.59;;;12.94;67.18
70229;BME280;57617;51.988;5.854;2023-03-22T00:35:13;100482.22;;;12.95;66.65
70229;BME280;57617;51.988;5.854;2023-03-22T00:37:38;100484.72;;;12.96;67.03
70229;BME280;57617;51.988;5.854;2023-03-22T00:40:05;100487.44;;;12.96;66.85
70229;BME280;57617;51.988;5.854;2023-03-22T00:42:36;100483.31;;;12.94;66.73
70229;BME280;57617;51.988;5.854;2023-03-22T00:45:02;100483.56;;;12.92;66.73
70229;BME280;57617;51.988;5.854;2023-03-22T00:47:28;100476.72;;;12.90;66.45
70229;BME280;57617;51.988;5.854;2023-03-22T00:49:53;100471.28;;;12.90;66.51
70229;BME280;57617;51.988;5.854;2023-03-22T00:52:19;100470.75;;;12.88;67.04
70229;BME280;57617;51.988;5.854;2023-03-22T00:54:45;100466.13;;;12.88;66.36
70229;BME280;57617;51.988;5.854;2023-03-22T00:57:11;100458.72;;;12.84;66.96
70229;BME280;57617;51.988;5.854;2023-03-22T00:59:38;100460.66;;;12.88;66.44
70229;BME280;57617;51.988;5.854;2023-03-22T01:02:04;100457.09;;;12.88;66.82
70229;BME280;57617;51.988;5.854;2023-03-22T01:04:30;100457.63;;;12.85;66.75
70229;BME280;57617;51.988;5.854;2023-03-22T01:06:57;100456.56;;;12.86;66.47
70229;BME280;57617;51.988;5.854;2023-03-22T01:09:28;100440.97;;;12.81;66.61
70229;BME280;57617;51.988;5.854;2023-03-22T01:11:56;100447.28;;;12.87;66.42
70229;BME280;57617;51.988;5.854;2023-03-22T01:14:23;100446.47;;;12.86;66.27
70229;BME280;57617;51.988;5.854;2023-03-22T01:16:48;100439.38;;;12.85;66.69
70229;BME280;57617;51.988;5.854;2023-03-22T01:19:14;100440.47;;;12.84;66.42
70229;BME280;57617;51.988;5.854;2023-03-22T01:21:40;100427.34;;;12.81;66.65
70229;BME280;57617;51.988;5.854;2023-03-22T01:24:06;100418.63;;;12.79;66.31
70229;BME280;57617;51.988;5.854;2023-03-22T01:26:31;100424.09;;;12.79;66.74
70229;BME280;57617;51.988;5.854;2023-03-22T01:28:56;100413.72;;;12.81;66.45
70229;BME280;57617;51.988;5.854;2023-03-22T01:31:22;100409.91;;;12.82;66.73
70229;BME280;57617;51.988;5.854;2023-03-22T01:33:47;100411.28;;;12.85;66.72
70229;BME280;57617;51.988;5.854;2023-03-22T01:36:12;100405.28;;;12.83;66.40
70229;BME280;57617;51.988;5.854;2023-03-22T01:38:37;100396.28;;;12.82;66.29
70229;BME280;57617;51.988;5.854;2023-03-22T01:41:03;100397.66;;;12.80;66.35
70229;BME280;57617;51.988;5.854;2023-03-22T01:43:28;100391.34;;;12.74;66.71
70229;BME280;57617;51.988;5.854;2023-03-22T01:45:54;100385.38;;;12.72;66.70
70229;BME280;57617;51.988;5.854;2023-03-22T01:48:29;100387.78;;;12.69;66.80
70229;BME280;57617;51.988;5.854;2023-03-22T01:53:34;100379.34;;;12.70;66.63
70229;BME280;57617;51.988;5.854;2023-03-22T01:56:01;100368.19;;;12.72;67.02
70229;BME280;57617;51.988;5.854;2023-03-22T01:58:27;100362.47;;;12.73;66.93
70229;BME280;57617;51.988;5.854;2023-03-22T02:00:53;100358.66;;;12.74;66.90
70229;BME280;57617;51.988;5.854;2023-03-22T02:03:25;100352.66;;;12.72;66.60
70229;BME280;57617;51.988;5.854;2023-03-22T02:05:54;100353.19;;;12.74;66.73
70229;BME280;57617;51.988;5.854;2023-03-22T02:08:20;100345.03;;;12.74;67.11
70229;BME280;57617;51.988;5.854;2023-03-22T02:10:45;100331.16;;;12.76;66.66
70229;BME280;57617;51.988;5.854;2023-03-22T02:21:33;100319.44;;;12.80;68.07
70229;BME280;57617;51.988;5.854;2023-03-22T02:29:57;100320.00;;;12.87;68.04
70229;BME280;57617;51.988;5.854;2023-03-22T02:34:36;100316.75;;;12.90;68.27
70229;BME280;57617;51.988;5.854;2023-03-22T02:45:44;100304.81;;;13.06;68.98
70229;BME280;57617;51.988;5.854;2023-03-22T02:48:21;100304.56;;;13.08;68.25
70229;BME280;57617;51.988;5.854;2023-03-22T02:50:57;100299.63;;;13.10;68.28
70229;BME280;57617;51.988;5.854;2023-03-22T02:53:37;100309.19;;;13.12;68.57
70229;BME280;57617;51.988;5.854;2023-03-22T02:56:15;100295.56;;;13.12;69.26
70229;BME280;57617;51.988;5.854;2023-03-22T02:58:45;100289.03;;;13.13;68.77
70229;BME280;57617;51.988;5.854;2023-03-22T03:01:21;100282.22;;;13.16;69.04
70229;BME280;57617;51.988;5.854;2023-03-22T03:03:49;100275.94;;;13.10;68.69
70229;BME280;57617;51.988;5.854;2023-03-22T03:06:19;100282.22;;;13.16;68.69
70229;BME280;57617;51.988;5.854;2023-03-22T03:08:47;100277.31;;;13.18;68.63
70229;BME280;57617;51.988;5.854;2023-03-22T03:11:18;100274.31;;;13.19;69.18
70229;BME280;57617;51.988;5.854;2023-03-22T03:13:46;100259.56;;;13.15;69.10
70229;BME280;57617;51.988;5.854;2023-03-22T03:16:13;100264.22;;;13.20;68.84
70229;BME280;57617;51.988;5.854;2023-03-22T03:24:14;100259.06;;;13.18;69.50
70229;BME280;57617;51.988;5.854;2023-03-22T03:32:36;100263.94;;;13.21;69.79
70229;BME280;57617;51.988;5.854;2023-03-22T03:35:13;100260.41;;;13.21;69.05
70229;BME280;57617;51.988;5.854;2023-03-22T03:37:49;100259.06;;;13.18;69.52
70229;BME280;57617;51.988;5.854;2023-03-22T03:40:23;100260.69;;;13.19;69.47
70229;BME280;57617;51.988;5.854;2023-03-22T03:42:52;100257.38;;;13.17;69.78
70229;BME280;57617;51.988;5.854;2023-03-22T03:45:19;100267.75;;;13.20;69.46
70229;BME280;57617;51.988;5.854;2023-03-22T03:47:46;100268.59;;;13.21;69.49
70229;BME280;57617;51.988;5.854;2023-03-22T03:50:19;100259.06;;;13.18;69.22
70229;BME280;57617;51.988;5.854;2023-03-22T03:52:45;100268.88;;;13.19;69.88
70229;BME280;57617;51.988;5.854;2023-03-22T03:55:10;100262.03;;;13.17;69.10
70229;BME280;57617;51.988;5.854;2023-03-22T03:57:35;100265.88;;;13.16;69.35
70229;BME280;57617;51.988;5.854;2023-03-22T04:00:01;100259.84;;;13.14;69.17
70229;BME280;57617;51.988;5.854;2023-03-22T04:02:26;100265.88;;;13.16;69.19
70229;BME280;57617;51.988;5.854;2023-03-22T04:04:51;100266.66;;;13.16;68.99
70229;BME280;57617;51.988;5.854;2023-03-22T04:07:16;100266.66;;;13.16;69.53
70229;BME280;57617;51.988;5.854;2023-03-22T04:09:42;100266.13;;;13.14;69.69
70229;BME280;57617;51.988;5.854;2023-03-22T04:12:07;100261.78;;;13.13;69.67
70229;BME280;57617;51.988;5.854;2023-03-22T04:14:34;100259.31;;;13.12;69.72
70229;BME280;57617;51.988;5.854;2023-03-22T04:16:59;100263.94;;;13.11;69.54
70229;BME280;57617;51.988;5.854;2023-03-22T04:19:24;100263.41;;;13.09;69.29
70229;BME280;57617;51.988;5.854;2023-03-22T04:21:50;100260.09;;;13.07;69.52
70229;BME280;57617;51.988;5.854;2023-03-22T04:24:17;100261.47;;;13.05;69.33
70229;BME280;57617;51.988;5.854;2023-03-22T04:26:42;100263.13;;;13.06;69.82
70229;BME280;57617;51.988;5.854;2023-03-22T04:29:07;100254.09;;;13.05;69.54
70229;BME280;57617;51.988;5.854;2023-03-22T04:31:33;100251.91;;;13.07;69.89
70229;BME280;57617;51.988;5.854;2023-03-22T04:34:00;100245.41;;;13.08;69.63
70229;BME280;57617;51.988;5.854;2023-03-22T04:36:31;100252.75;;;13.08;69.47
70229;BME280;57617;51.988;5.854;2023-03-22T04:39:02;100251.91;;;13.07;69.68
70229;BME280;57617;51.988;5.854;2023-03-22T04:41:29;100245.41;;;13.08;68.98
70229;BME280;57617;51.988;5.854;2023-03-22T04:43:55;100248.13;;;13.03;69.20
70229;BME280;57617;51.988;5.854;2023-03-22T04:46:22;100250.28;;;13.01;69.15
70229;BME280;57617;51.988;5.854;2023-03-22T04:48:48;100243.72;;;13.02;69.05
70229;BME280;57617;51.988;5.854;2023-03-22T04:51:13;100240.47;;;13.00;69.49
70229;BME280;57617;51.988;5.854;2023-03-22T04:53:38;100239.38;;;12.96;69.40
70229;BME280;57617;51.988;5.854;2023-03-22T04:56:05;100226.25;;;12.93;69.17
70229;BME280;57617;51.988;5.854;2023-03-22T04:58:32;100228.16;;;12.93;69.25
70229;BME280;57617;51.988;5.854;2023-03-22T05:00:58;100230.63;;;12.94;69.46
70229;BME280;57617;51.988;5.854;2023-03-22T05:03:23;100232.78;;;12.92;68.96
70229;BME280;57617;51.988;5.854;2023-03-22T05:05:54;100230.34;;;12.91;69.05
70229;BME280;57617;51.988;5.854;2023-03-22T05:08:21;100228.16;;;12.88;69.62
70229;BME280;57617;51.988;5.854;2023-03-22T05:10:49;100224.59;;;12.87;69.11
70229;BME280;57617;51.988;5.854;2023-03-22T05:13:16;100223.78;;;12.87;69.53
70229;BME280;57617;51.988;5.854;2023-03-22T05:15:41;100216.72;;;12.86;69.58
70229;BME280;57617;51.988;5.854;2023-03-22T05:18:07;100218.59;;;12.85;69.27
70229;BME280;57617;51.988;5.854;2023-03-22T05:20:32;100225.94;;;12.85;69.28
70229;BME280;57617;51.988;5.854;2023-03-22T05:22:57;100217.25;;;12.88;69.43
70229;BME280;57617;51.988;5.854;2023-03-22T05:25:26;100218.34;;;12.87;69.19
70229;BME280;57617;51.988;5.854;2023-03-22T05:27:52;100203.34;;;12.84;69.47
70229;BME280;57617;51.988;5.854;2023-03-22T05:30:18;100215.34;;;12.88;69.47
70229;BME280;57617;51.988;5.854;2023-03-22T05:32:44;100217.50;;;12.86;69.37
70229;BME280;57617;51.988;5.854;2023-03-22T05:35:11;100208.22;;;12.82;69.43
70229;BME280;57617;51.988;5.854;2023-03-22T05:37:37;100210.97;;;12.87;69.47
70229;BME280;57617;51.988;5.854;2023-03-22T05:40:02;100216.16;;;12.89;69.09
70229;BME280;57617;51.988;5.854;2023-03-22T05:42:29;100216.16;;;12.89;69.09
70229;BME280;57617;51.988;5.854;2023-03-22T05:44:55;100217.25;;;12.88;68.71
70229;BME280;57617;51.988;5.854;2023-03-22T05:47:20;100215.88;;;12.85;69.46
70229;BME280;57617;51.988;5.854;2023-03-22T05:49:46;100212.59;;;12.78;68.99
70229;BME280;57617;51.988;5.854;2023-03-22T05:52:11;100219.16;;;12.77;69.01
70229;BME280;57617;51.988;5.854;2023-03-22T05:54:37;100212.88;;;12.77;69.16
70229;BME280;57617;51.988;5.854;2023-03-22T05:57:02;100206.59;;;12.76;69.35
70229;BME280;57617;51.988;5.854;2023-03-22T05:59:27;100204.16;;;12.75;68.99
70229;BME280;57617;51.988;5.854;2023-03-22T06:01:53;100205.78;;;12.76;69.10
70229;BME280;57617;51.988;5.854;2023-03-22T06:04:18;100206.88;;;12.75;68.91
70229;BME280;57617;51.988;5.854;2023-03-22T06:06:45;100206.88;;;12.75;69.28
70229;BME280;57617;51.988;5.854;2023-03-22T06:09:10;100207.94;;;12.74;69.26
70229;BME280;57617;51.988;5.854;2023-03-22T06:11:36;100213.13;;;12.75;69.28
70229;BME280;57617;51.988;5.854;2023-03-22T06:14:01;100190.53;;;12.70;69.45
70229;BME280;57617;51.988;5.854;2023-03-22T06:16:26;100198.97;;;12.73;69.41
70229;BME280;57617;51.988;5.854;2023-03-22T06:18:52;100199.22;;;12.72;69.13
70229;BME280;57617;51.988;5.854;2023-03-22T06:21:17;100198.97;;;12.73;68.96
70229;BME280;57617;51.988;5.854;2023-03-22T06:23:42;100199.75;;;12.74;69.05
70229;BME280;57617;51.988;5.854;2023-03-22T06:26:08;100199.22;;;12.72;69.18
70229;BME280;57617;51.988;5.854;2023-03-22T06:28:35;100202.47;;;12.69;69.54
70229;BME280;57617;51.988;5.854;2023-03-22T06:31:08;100201.13;;;12.71;69.19
70229;BME280;57617;51.988;5.854;2023-03-22T06:33:34;100199.22;;;12.67;68.94
70229;BME280;57617;51.988;5.854;2023-03-22T06:36:00;100207.13;;;12.68;69.00
70229;BME280;57617;51.988;5.854;2023-03-22T06:38:26;100208.50;;;12.71;69.04
70229;BME280;57617;51.988;5.854;2023-03-22T06:40:52;100201.13;;;12.71;69.09
70229;BME280;57617;51.988;5.854;2023-03-22T06:43:17;100208.50;;;12.71;69.35
70229;BME280;57617;51.988;5.854;2023-03-22T06:45:45;100201.94;;;12.67;68.82
70229;BME280;57617;51.988;5.854;2023-03-22T06:48:10;100206.56;;;12.71;68.74
70229;BME280;57617;51.988;5.854;2023-03-22T06:50:35;100205.50;;;12.72;68.75
70229;BME280;57617;51.988;5.854;2023-03-22T06:53:03;100201.69;;;12.73;68.80
70229;BME280;57617;51.988;5.854;2023-03-22T06:55:28;100199.25;;;12.82;69.21
70229;BME280;57617;51.988;5.854;2023-03-22T06:57:57;100204.72;;;12.92;69.00
70229;BME280;57617;51.988;5.854;2023-03-22T07:00:22;100200.66;;;12.99;68.91
70229;BME280;57617;51.988;5.854;2023-03-22T07:02:48;100200.94;;;13.08;68.95
70229;BME280;57617;51.988;5.854;2023-03-22T07:05:13;100198.50;;;13.16;68.58
70229;BME280;57617;51.988;5.854;2023-03-22T07:07:38;100191.66;;;13.14;68.41
70229;BME280;57617;51.988;5.854;2023-03-22T07:10:04;100194.66;;;13.17;68.45
70229;BME280;57617;51.988;5.854;2023-03-22T07:12:32;100201.47;;;13.25;68.17
70229;BME280;57617;51.988;5.854;2023-03-22T07:14:57;100190.31;;;13.26;68.18
70229;BME280;57617;51.988;5.854;2023-03-22T07:17:22;100196.84;;;13.30;68.11
70229;BME280;57617;51.988;5.854;2023-03-22T07:19:48;100186.47;;;13.32;68.35
70229;BME280;57617;51.988;5.854;2023-03-22T07:22:13;100198.75;;;13.35;68.20
70229;BME280;57617;51.988;5.854;2023-03-22T07:24:38;100199.84;;;13.39;68.22
70229;BME280;57617;51.988;5.854;2023-03-22T07:27:04;100197.66;;;13.41;67.86
70229;BME280;57617;51.988;5.854;2023-03-22T07:29:29;100185.69;;;13.42;67.92
70229;BME280;57617;51.988;5.854;2023-03-22T07:31:54;100192.75;;;13.48;67.44
70229;BME280;57617;51.988;5.854;2023-03-22T07:34:20;100194.13;;;13.50;67.75
70229;BME280;57617;51.988;5.854;2023-03-22T07:36:45;100195.22;;;13.49;67.63
70229;BME280;57617;51.988;5.854;2023-03-22T07:39:10;100187.31;;;13.48;67.22
70229;BME280;57617;51.988;5.854;2023-03-22T07:41:36;100197.38;;;13.47;67.36
70229;BME280;57617;51.988;5.854;2023-03-22T07:44:01;100192.19;;;13.46;67.46
70229;BME280;57617;51.988;5.854;2023-03-22T07:46:26;100192.19;;;13.46;67.16
70229;BME280;57617;51.988;5.854;2023-03-22T07:48:51;100193.28;;;13.45;67.69
70229;BME280;57617;51.988;5.854;2023-03-22T07:51:17;100193.84;;;13.47;67.58
70229;BME280;57617;51.988;5.854;2023-03-22T07:53:43;100196.59;;;13.47;67.06
70229;BME280;57617;51.988;5.854;2023-03-22T07:56:08;100190.31;;;13.46;66.98
70229;BME280;57617;51.988;5.854;2023-03-22T07:58:34;100202.31;;;13.50;67.49
70229;BME280;57617;51.988;5.854;2023-03-22T08:01:05;100203.94;;;13.51;66.65
70229;BME280;57617;51.988;5.854;2023-03-22T08:03:33;100200.94;;;13.53;66.99
70229;BME280;57617;51.988;5.854;2023-03-22T08:06:00;100197.13;;;13.54;66.82
70229;BME280;57617;51.988;5.854;2023-03-22T08:08:27;100194.38;;;13.59;66.72
70229;BME280;57617;51.988;5.854;2023-03-22T08:10:52;100199.56;;;13.60;67.19
70229;BME280;57617;51.988;5.854;2023-03-22T08:13:17;100195.72;;;13.66;66.65
70229;BME280;57617;51.988;5.854;2023-03-22T08:15:43;100206.63;;;13.71;66.75
70229;BME280;57617;51.988;5.854;2023-03-22T08:18:08;100193.00;;;13.71;66.82
70229;BME280;57617;51.988;5.854;2023-03-22T08:20:33;100180.97;;;13.72;66.33
70229;BME280;57617;51.988;5.854;2023-03-22T08:22:59;100185.88;;;13.80;66.96
70229;BME280;57617;51.988;5.854;2023-03-22T08:25:25;100189.41;;;13.86;66.44
70229;BME280;57617;51.988;5.854;2023-03-22T08:27:50;100195.69;;;13.91;66.71
70229;BME280;57617;51.988;5.854;2023-03-22T08:30:15;100202.50;;;13.94;66.37
70229;BME280;57617;51.988;5.854;2023-03-22T08:32:41;100195.09;;;13.94;66.41
70229;BME280;57617;51.988;5.854;2023-03-22T08:35:06;100203.28;;;13.94;66.13
70229;BME280;57617;51.988;5.854;2023-03-22T08:37:32;100201.66;;;13.98;65.97
70229;BME280;57617;51.988;5.854;2023-03-22T08:39:58;100196.19;;;14.03;66.05
70229;BME280;57617;51.988;5.854;2023-03-22T08:42:23;100200.53;;;14.04;65.95
70229;BME280;57617;51.988;5.854;2023-03-22T08:44:48;100196.16;;;14.08;65.88
70229;BME280;57617;51.988;5.854;2023-03-22T08:47:16;100197.25;;;14.12;64.72
70229;BME280;57617;51.988;5.854;2023-03-22T08:49:41;100192.31;;;14.19;64.95
70229;BME280;57617;51.988;5.854;2023-03-22T08:52:07;100185.72;;;14.25;65.50
70229;BME280;57617;51.988;5.854;2023-03-22T08:54:32;100193.91;;;14.30;65.40
70229;BME280;57617;51.988;5.854;2023-03-22T08:56:58;100184.31;;;14.38;64.88
70229;BME280;57617;51.988;5.854;2023-03-22T08:59:23;100173.38;;;14.38;64.76
70229;BME280;57617;51.988;5.854;2023-03-22T09:01:49;100190.53;;;14.53;64.43
70229;BME280;57617;51.988;5.854;2023-03-22T09:04:14;100187.78;;;14.58;64.71
70229;BME280;57617;51.988;5.854;2023-03-22T09:06:39;100187.19;;;14.61;64.09
70229;BME280;57617;51.988;5.854;2023-03-22T09:09:08;100177.34;;;14.60;63.59
70229;BME280;57617;51.988;5.854;2023-03-22T09:11:33;100181.72;;;14.61;64.27
70229;BME280;57617;51.988;5.854;2023-03-22T09:14:01;100182.03;;;14.60;63.61
70229;BME280;57617;51.988;5.854;2023-03-22T09:16:26;100167.75;;;14.68;63.56
70229;BME280;57617;51.988;5.854;2023-03-22T09:18:51;100174.81;;;14.74;62.99
70229;BME280;57617;51.988;5.854;2023-03-22T09:21:17;100178.63;;;14.78;63.45
70229;BME280;57617;51.988;5.854;2023-03-22T09:23:42;100171.25;;;14.78;62.89
70229;BME280;57617;51.988;5.854;2023-03-22T09:26:11;100179.69;;;14.82;63.21
70229;BME280;57617;51.988;5.854;2023-03-22T09:28:37;100172.81;;;14.89;62.90
70229;BME280;57617;51.988;5.854;2023-03-22T09:31:07;100166.78;;;14.92;62.72
70229;BME280;57617;51.988;5.854;2023-03-22T09:33:35;100174.44;;;14.90;62.52
70229;BME280;57617;51.988;5.854;2023-03-22T09:36:00;100166.50;;;14.89;62.29
70229;BME280;57617;51.988;5.854;2023-03-22T09:38:26;100166.25;;;14.85;62.48
70229;BME280;57617;51.988;5.854;2023-03-22T09:43:17;100165.47;;;14.85;62.42
70229;BME280;57617;51.988;5.854;2023-03-22T09:45:47;100175.06;;;14.82;62.21
70229;BME280;57617;51.988;5.854;2023-03-22T09:48:29;100176.47;;;14.75;61.83
70229;BME280;57617;51.988;5.854;2023-03-22T09:50:56;100169.09;;;14.70;61.99
70229;BME280;57617;51.988;5.854;2023-03-22T09:53:24;100164.25;;;14.62;61.58
70229;BME280;57617;51.988;5.854;2023-03-22T09:58:55;100177.38;;;14.55;61.19
70229;BME280;57617;51.988;5.854;2023-03-22T10:06:48;100167.88;;;14.43;61.38
70229;BME280;57617;51.988;5.854;2023-03-22T10:09:39;100170.03;;;14.51;61.02
70229;BME280;57617;51.988;5.854;2023-03-22T10:12:16;100178.78;;;14.48;60.85
70229;BME280;57617;51.988;5.854;2023-03-22T10:14:50;100172.50;;;14.52;61.47
70229;BME280;57617;51.988;5.854;2023-03-22T10:17:24;100167.84;;;14.53;60.57
70229;BME280;57617;51.988;5.854;2023-03-22T10:19:54;100177.94;;;14.57;61.38
70229;BME280;57617;51.988;5.854;2023-03-22T10:22:25;100171.69;;;14.52;61.57
70229;BME280;57617;51.988;5.854;2023-03-22T10:24:53;100170.28;;;14.54;62.03
70229;BME280;57617;51.988;5.854;2023-03-22T10:27:21;100170.91;;;14.46;62.55
70229;BME280;57617;51.988;5.854;2023-03-22T10:29:52;100174.72;;;14.40;62.93
70229;BME280;57617;51.988;5.854;2023-03-22T10:32:48;100173.94;;;14.40;63.22
70229;BME280;57617;51.988;5.854;2023-03-22T10:35:15;100176.13;;;14.38;63.11
70229;BME280;57617;51.988;5.854;2023-03-22T10:37:44;100179.69;;;14.33;63.68
70229;BME280;57617;51.988;5.854;2023-03-22T10:40:20;100178.09;;;14.27;63.55
70229;BME280;57617;51.988;5.854;2023-03-22T10:45:35;100171.28;;;14.20;64.34
70229;BME280;57617;51.988;5.854;2023-03-22T10:48:03;100174.81;;;14.15;64.33
70229;BME280;57617;51.988;5.854;2023-03-22T10:50:33;100184.69;;;14.11;64.83
70229;BME280;57617;51.988;5.854;2023-03-22T10:53:28;100184.13;;;14.09;65.33
70229;BME280;57617;51.988;5.854;2023-03-22T10:55:55;100179.25;;;14.06;65.71
70229;BME280;57617;51.988;5.854;2023-03-22T10:58:25;100182.78;;;14.07;65.52
70229;BME280;57617;51.988;5.854;2023-03-22T11:00:55;100192.31;;;14.09;65.36
70229;BME280;57617;51.988;5.854;2023-03-22T11:03:26;100187.19;;;14.03;66.69
70229;BME280;57617;51.988;5.854;2023-03-22T11:06:04;100190.19;;;14.01;66.58
70229;BME280;57617;51.988;5.854;2023-03-22T11:11:14;100192.63;;;14.08;66.91
70229;BME280;57617;51.988;5.854;2023-03-22T11:13:40;100181.72;;;14.03;66.42
70229;BME280;57617;51.988;5.854;2023-03-22T11:16:05;100190.72;;;14.03;66.49
70229;BME280;57617;51.988;5.854;2023-03-22T11:18:32;100177.63;;;14.00;66.74
70229;BME280;57617;51.988;5.854;2023-03-22T11:21:03;100186.63;;;13.96;66.98
70229;BME280;57617;51.988;5.854;2023-03-22T11:23:32;100189.66;;;13.94;66.99
70229;BME280;57617;51.988;5.854;2023-03-22T11:26:11;100163.44;;;13.88;67.58
70229;BME280;57617;51.988;5.854;2023-03-22T11:28:48;100177.06;;;14.03;67.62
70229;BME280;57617;51.988;5.854;2023-03-22T11:31:16;100174.91;;;14.00;67.37
70229;BME280;57617;51.988;5.854;2023-03-22T11:33:56;100182.53;;;14.03;67.97
70229;BME280;57617;51.988;5.854;2023-03-22T11:36:22;100168.31;;;14.06;67.76
70229;BME280;57617;51.988;5.854;2023-03-22T11:38:56;100171.59;;;14.03;68.07
70229;BME280;57617;51.988;5.854;2023-03-22T11:41:26;100184.44;;;14.03;67.56
70229;BME280;57617;51.988;5.854;2023-03-22T11:43:55;100172.16;;;14.05;67.94
70229;BME280;57617;51.988;5.854;2023-03-22T11:46:21;100173.22;;;14.04;67.55
70229;BME280;57617;51.988;5.854;2023-03-22T11:48:49;100178.16;;;14.07;67.84
70229;BME280;57617;51.988;5.854;2023-03-22T11:51:18;100178.41;;;14.06;67.66
70229;BME280;57617;51.988;5.854;2023-03-22T11:54:00;100180.88;;;14.07;68.17
70229;BME280;57617;51.988;5.854;2023-03-22T11:56:28;100164.50;;;14.07;67.63
70229;BME280;57617;51.988;5.854;2023-03-22T11:58:57;100166.69;;;14.05;67.82
70229;BME280;57617;51.988;5.854;2023-03-22T12:01:34;100174.31;;;14.08;67.97
70229;BME280;57617;51.988;5.854;2023-03-22T12:04:06;100173.78;;;14.06;68.01
70229;BME280;57617;51.988;5.854;2023-03-22T12:06:37;100166.13;;;14.03;68.00
70229;BME280;57617;51.988;5.854;2023-03-22T12:09:16;100164.75;;;14.06;67.97
70229;BME280;57617;51.988;5.854;2023-03-22T12:11:46;100166.13;;;14.08;67.75
70229;BME280;57617;51.988;5.854;2023-03-22T12:14:42;100154.66;;;14.11;68.01
70229;BME280;57617;51.988;5.854;2023-03-22T12:20:14;100158.44;;;14.15;67.32
70229;BME280;57617;51.988;5.854;2023-03-22T12:22:46;100172.09;;;14.15;67.29
70229;BME280;57617;51.988;5.854;2023-03-22T12:25:17;100188.78;;;14.14;67.30
70229;BME280;57617;51.988;5.854;2023-03-22T12:28:01;100175.91;;;14.14;67.60
70229;BME280;57617;51.988;5.854;2023-03-22T12:30:37;100174.56;;;14.12;67.37
70229;BME280;57617;51.988;5.854;2023-03-22T12:33:18;100175.66;;;14.11;66.77
70229;BME280;57617;51.988;5.854;2023-03-22T12:35:46;100159.28;;;14.06;66.92
70229;BME280;57617;51.988;5.854;2023-03-22T12:41:01;100174.00;;;14.15;67.01
70229;BME280;57617;51.988;5.854;2023-03-22T12:43:47;100169.94;;;14.12;67.24
70229;BME280;57617;51.988;5.854;2023-03-22T12:46:25;100162.81;;;14.16;67.11
70229;BME280;57617;51.988;5.854;2023-03-22T12:49:12;100163.91;;;14.20;66.86
70229;BME280;57617;51.988;5.854;2023-03-22T12:51:43;100166.63;;;14.25;66.75
70229;BME280;57617;51.988;5.854;2023-03-22T12:54:10;100162.25;;;14.24;66.97
70229;BME280;57617;51.988;5.854;2023-03-22T12:56:39;100162.81;;;14.26;67.05
70229;BME280;57617;51.988;5.854;2023-03-22T12:59:11;100168.28;;;14.26;66.88
70229;BME280;57617;51.988;5.854;2023-03-22T13:04:31;100165.25;;;14.23;66.71
70229;BME280;57617;51.988;5.854;2023-03-22T13:07:15;100166.34;;;14.27;66.81
70229;BME280;57617;51.988;5.854;2023-03-22T13:23:23;100157.84;;;14.33;66.48
70229;BME280;57617;51.988;5.854;2023-03-22T13:32:54;100152.88;;;14.40;66.57
70229;BME280;57617;51.988;5.854;2023-03-22T13:35:26;100150.16;;;14.40;66.35
70229;BME280;57617;51.988;5.854;2023-03-22T13:37:53;100160.56;;;14.38;66.56
70229;BME280;57617;51.988;5.854;2023-03-22T13:40:30;100157.28;;;14.41;66.74
70229;BME280;57617;51.988;5.854;2023-03-22T13:43:25;100169.53;;;14.49;66.38
70229;BME280;57617;51.988;5.854;2023-03-22T13:53:54;100159.38;;;14.49;66.24
70229;BME280;57617;51.988;5.854;2023-03-22T13:56:58;100158.59;;;14.49;66.04
70229;BME280;57617;51.988;5.854;2023-03-22T14:01:56;100157.50;;;14.50;66.38
70229;BME280;57617;51.988;5.854;2023-03-22T14:04:45;100156.38;;;14.51;66.11
70229;BME280;57617;51.988;5.854;2023-03-22T14:07:33;100159.38;;;14.54;65.88
70229;BME280;57617;51.988;5.854;2023-03-22T14:10:12;100153.66;;;14.51;66.20
70229;BME280;57617;51.988;5.854;2023-03-22T14:12:48;100156.66;;;14.49;66.27
70229;BME280;57617;51.988;5.854;2023-03-22T14:15:23;100155.84;;;14.49;66.56
70229;BME280;57617;51.988;5.854;2023-03-22T14:17:59;100147.94;;;14.47;66.70
70229;BME280;57617;51.988;5.854;2023-03-22T14:20:31;100140.88;;;14.41;67.13
70229;BME280;57617;51.988;5.854;2023-03-22T14:23:05;100141.94;;;14.40;66.85
70229;BME280;57617;51.988;5.854;2023-03-22T14:25:33;100148.78;;;14.38;67.44
70229;BME280;57617;51.988;5.854;2023-03-22T14:28:00;100149.09;;;14.36;67.58
70229;BME280;57617;51.988;5.854;2023-03-22T14:32:59;100148.81;;;14.33;68.08
70229;BME280;57617;51.988;5.854;2023-03-22T14:35:40;100149.13;;;14.31;68.74